TimeAKDT,TemperatureF,Dew PointF,Humidity,Sea Level PressureIn,VisibilityMPH,Wind Direction,Wind SpeedMPH,Gust SpeedMPH,PrecipitationIn,Events,Conditions,WindDirDegrees,DateUTC
12:41 AM,52.0,46.0,80,30.08,10.0,Variable,5.8,-,N/A,,Overcast,0,2014-06-10 08:41:00
12:54 AM,52.0,46.0,80,30.09,10.0,ENE,9.2,-,N/A,,Overcast,70,2014-06-10 08:54:00
1:38 AM,52.0,45.0,77,30.09,10.0,East,8.1,-,N/A,,Overcast,80,2014-06-10 09:38:00
1:54 AM,51.1,45.0,80,30.10,10.0,East,6.9,-,N/A,,Overcast,80,2014-06-10 09:54:00
2:50 AM,51.8,44.6,76,30.10,10.0,East,5.8,-,N/A,,Overcast,80,2014-06-10 10:50:00
2:54 AM,51.1,45.0,80,30.11,10.0,East,4.6,-,N/A,,Overcast,90,2014-06-10 10:54:00
3:15 AM,51.1,45.0,80,30.10,10.0,East,5.8,-,N/A,,Overcast,80,2014-06-10 11:15:00
3:39 AM,51.1,45.0,80,30.10,10.0,ENE,5.8,-,N/A,,Overcast,70,2014-06-10 11:39:00
3:54 AM,50.0,45.0,83,30.11,10.0,East,4.6,-,N/A,,Overcast,100,2014-06-10 11:54:00
4:54 AM,51.1,46.0,83,30.11,10.0,ENE,6.9,-,0.00,,Overcast,70,2014-06-10 12:54:00
5:03 AM,50.0,46.0,86,30.10,10.0,East,8.1,-,N/A,,Overcast,80,2014-06-10 13:03:00
5:54 AM,51.1,46.0,83,30.12,10.0,ESE,5.8,-,N/A,,Overcast,110,2014-06-10 13:54:00
6:26 AM,51.1,46.0,83,30.11,10.0,ESE,4.6,-,N/A,,Overcast,110,2014-06-10 14:26:00
6:54 AM,51.1,46.0,83,30.12,10.0,East,5.8,-,N/A,,Overcast,100,2014-06-10 14:54:00
7:35 AM,51.1,46.9,86,30.11,10.0,SE,5.8,-,N/A,,Overcast,140,2014-06-10 15:35:00
7:54 AM,51.1,46.0,83,30.12,10.0,ESE,5.8,-,N/A,,Overcast,110,2014-06-10 15:54:00
8:07 AM,52.0,46.0,80,30.12,10.0,ESE,3.5,-,N/A,,Overcast,120,2014-06-10 16:07:00
8:34 AM,53.1,46.9,80,30.11,10.0,SE,8.1,-,N/A,,Overcast,140,2014-06-10 16:34:00
8:54 AM,52.0,46.9,83,30.12,10.0,ESE,6.9,-,N/A,,Overcast,120,2014-06-10 16:54:00
9:21 AM,53.1,46.9,80,30.11,10.0,ESE,5.8,-,N/A,,Overcast,120,2014-06-10 17:21:00
9:54 AM,53.1,46.9,80,30.12,10.0,SE,5.8,-,N/A,,Overcast,130,2014-06-10 17:54:00
10:09 AM,53.1,46.9,80,30.12,10.0,East,5.8,-,N/A,,Overcast,100,2014-06-10 18:09:00
10:54 AM,54.0,46.0,75,30.13,10.0,ESE,6.9,-,N/A,,Overcast,110,2014-06-10 18:54:00
11:29 AM,55.0,46.0,72,30.12,10.0,SE,9.2,-,N/A,,Overcast,140,2014-06-10 19:29:00
11:54 AM,55.0,46.0,72,30.13,10.0,SE,10.4,-,N/A,,Overcast,140,2014-06-10 19:54:00
12:54 PM,57.0,48.0,72,30.13,10.0,SE,5.8,-,N/A,,Overcast,130,2014-06-10 20:54:00
1:09 PM,57.0,46.9,69,30.12,10.0,SSE,8.1,-,N/A,,Overcast,150,2014-06-10 21:09:00
1:17 PM,55.9,48.0,75,30.12,10.0,SE,6.9,-,N/A,,Overcast,130,2014-06-10 21:17:00
1:43 PM,55.9,46.9,72,30.12,10.0,SE,9.2,-,N/A,,Overcast,130,2014-06-10 21:43:00
1:54 PM,55.9,48.0,75,30.12,10.0,SE,8.1,-,N/A,,Mostly Cloudy,130,2014-06-10 21:54:00
2:54 PM,57.9,46.9,67,30.12,10.0,SE,12.7,-,N/A,,Mostly Cloudy,140,2014-06-10 22:54:00
3:54 PM,57.9,45.0,62,30.11,10.0,SE,9.2,-,N/A,,Mostly Cloudy,130,2014-06-10 23:54:00
4:54 PM,59.0,45.0,60,30.10,10.0,ESE,10.4,17.3,N/A,,Partly Cloudy,120,2014-06-11 00:54:00
5:54 PM,59.0,46.9,64,30.08,10.0,ESE,10.4,-,N/A,,Partly Cloudy,120,2014-06-11 01:54:00
7:54 PM,57.9,44.1,60,30.08,10.0,SE,9.2,-,N/A,,Overcast,130,2014-06-11 03:54:00
8:54 PM,55.9,43.0,62,30.08,10.0,ESE,8.1,-,N/A,,Overcast,120,2014-06-11 04:54:00
9:54 PM,55.0,44.1,67,30.09,10.0,Calm,Calm,-,N/A,,Overcast,0,2014-06-11 05:54:00
10:54 PM,54.0,43.0,66,30.09,10.0,Variable,5.8,-,N/A,,Overcast,0,2014-06-11 06:54:00
11:54 PM,54.0,43.0,66,30.09,10.0,East,5.8,-,N/A,,Overcast,80,2014-06-11 07:54:00